Airfield :
LOGIN :

Register | Disclaimer

   EN    FR    IT 

 










Legend :    VFR   Marginal VFR   IFR   Intensive IFR   Very Intensive IFR
Visi :
Ceiling :
>= 8 km
>= 3000ft
5 to 8 km
1000 to 3000 ft
1500m to 5 km
500 to 1000 ft
800 to 1500m
200 to 500 ft
< 800m
< 200 ft
Symbols :   Thunderstorms  Fog  Heavy snow  Heavy precipitations  Wind > 20 kt
SIGMETs :     Misc.  Thunderstorms  Icing  Turbulence  Mountain Waves  Volcanic Ashes






- Airport Elevation : 18 ft
- IATA code : AJA


LFKJ - Ajaccio

CURRENT METAR :
  • 071530Z AUTO 19007KT CAVOK 20/14 Q1016 NOSIG

EXPIRED METARs :
  • 071500Z AUTO 21009KT CAVOK 20/15 Q1016 NOSIG
  • 071430Z AUTO 22008KT CAVOK 20/15 Q1016 NOSIG
  • 071400Z AUTO 22009KT 9999 FEW056 20/16 Q1016 NOSIG
  • 071330Z AUTO 21011KT 9999 FEW047 BKN058 21/16 Q1016 NOSIG
  • 071300Z AUTO 20009KT 9999 SCT048 BKN060 20/16 Q1016 NOSIG

TAF TAF LFKJ
Valid from the 07 at 15:00 until the 08 at 15:00 UTC


071400Z 0715/0815 22010KT 9999 FEW050
BECMG 0718/0720 05006KT
BECMG 0809/0811 21010KT
ATIS : +33 4 95 23 59 85



MET'MAP, your aeronautical weather chart ! - Copyright ORBIFLY December 2007 - Disclaimer

ORBIFLY MET'MAP TEAM :

Programming & Development : Alexandra Zaïnal
Concept & original design : Baudouin d'Aumeries
Assistance for programming : Marc-Olivier Méhu
Technical & hardware support : Manuel Goepfert

Contact : metmap@orbifly.com




SOURCES & CREDITS :

   NOAA